Time;durP1;ratioP1;P1;durP2;ratioP2;P2;SDS_P1;SDS_P2;PMS_P1;PMS_P2;Temp;Humidity;BMP_temperature;BMP_pressure;BME280_temperature;BME280_humidity;BME280_pressure;Samples;Min_cycle;Max_cycle;Signal;HPM_P1;HPM_P2
2021/05/13 00:01:43;;;;;;;1.27;0.30;;;;;;;17.36;70.06;99737.34;4943736;28;128315;-65
2021/05/13 00:04:09;;;;;;;0.88;0.47;;;;;;;17.35;70.28;99742.00;4959077;28;127596;-65
2021/05/13 00:06:35;;;;;;;0.68;0.32;;;;;;;17.36;70.28;99742.78;4960389;28;98213;-65
2021/05/13 00:09:01;;;;;;;1.08;0.30;;;;;;;17.38;70.13;99740.56;4926318;28;118081;-65
2021/05/13 00:11:31;;;;;;;1.13;0.40;;;;;;;17.35;69.94;99741.19;4925985;28;110551;-65
2021/05/13 00:13:57;;;;;;;1.30;0.40;;;;;;;17.35;70.34;99731.09;4927210;28;98492;-65
2021/05/13 00:16:29;;;;;;;0.70;0.30;;;;;;;17.35;70.34;99736.56;4961126;28;108902;-65
2021/05/13 00:18:56;;;;;;;0.45;0.20;;;;;;;17.33;70.12;99730.66;4960804;28;98170;-71
2021/05/13 00:21:22;;;;;;;0.75;0.30;;;;;;;17.34;70.34;99723.28;4961338;28;100861;-71
2021/05/13 00:23:49;;;;;;;0.57;0.30;;;;;;;17.33;70.15;99722.47;4958644;28;98268;-71
2021/05/13 00:26:15;;;;;;;0.50;0.30;;;;;;;17.31;70.25;99718.47;4939763;28;98717;-72
2021/05/13 00:28:41;;;;;;;0.80;0.30;;;;;;;17.32;70.18;99718.13;4923776;28;98304;-70
2021/05/13 00:31:07;;;;;;;0.47;0.20;;;;;;;17.31;70.27;99718.47;4926074;28;99788;-71
2021/05/13 00:33:33;;;;;;;0.50;0.20;;;;;;;17.29;70.12;99713.38;4939965;28;127974;-64
2021/05/13 00:35:59;;;;;;;0.40;0.20;;;;;;;17.30;70.20;99711.44;4907261;28;98393;-71
2021/05/13 00:38:25;;;;;;;0.40;0.20;;;;;;;17.29;70.29;99709.81;4923955;28;117729;-64
2021/05/13 00:40:54;;;;;;;0.85;0.22;;;;;;;17.29;70.33;99701.66;4922216;28;126658;-63
2021/05/13 00:43:20;;;;;;;0.57;0.20;;;;;;;17.27;70.24;99696.56;4941814;28;120293;-71
2021/05/13 00:45:46;;;;;;;0.35;0.20;;;;;;;17.27;70.46;99707.44;4940072;28;127975;-70
2021/05/13 00:48:17;;;;;;;0.40;0.20;;;;;;;17.25;70.33;99690.66;4911372;28;98069;-71
2021/05/13 00:50:43;;;;;;;0.30;0.20;;;;;;;17.24;70.41;99688.25;4938550;28;98654;-71
2021/05/13 00:53:10;;;;;;;0.30;0.20;;;;;;;17.24;70.18;99690.97;4961879;28;110016;-65
2021/05/13 00:55:37;;;;;;;0.40;0.10;;;;;;;17.23;70.29;99690.16;4958652;28;98331;-64
2021/05/13 00:58:04;;;;;;;0.63;0.20;;;;;;;17.22;70.58;99696.75;4958931;28;97831;-63
2021/05/13 01:00:53;;;;;;;0.60;0.20;;;;;;;17.20;70.52;99685.38;4960735;28;98320;-63
2021/05/13 01:03:19;;;;;;;0.40;0.10;;;;;;;17.18;70.59;99677.56;4944863;28;97907;-71
2021/05/13 01:05:45;;;;;;;0.20;0.10;;;;;;;17.18;70.33;99688.44;4949469;28;116185;-71
2021/05/13 01:08:11;;;;;;;0.30;0.10;;;;;;;17.16;70.46;99684.44;4940955;28;97970;-63
2021/05/13 01:10:38;;;;;;;0.40;0.10;;;;;;;17.14;70.74;99686.72;4939104;28;98705;-72
2021/05/13 01:13:09;;;;;;;0.52;0.10;;;;;;;17.12;70.69;99687.03;4937420;28;98834;-71
2021/05/13 01:16:45;;;;;;;0.20;0.10;;;;;;;17.11;70.61;99684.66;4946262;28;97916;-71
2021/05/13 01:18:30;;;;;;;0.40;0.10;;;;;;;17.09;70.71;99676.00;4954064;28;98051;-71
2021/05/13 01:20:56;;;;;;;0.30;0.10;;;;;;;17.09;70.59;99670.53;4930335;28;126311;-70
2021/05/13 01:23:22;;;;;;;0.65;0.15;;;;;;;17.07;70.85;99676.34;4912434;28;128090;-71
2021/05/13 01:25:54;;;;;;;0.30;0.10;;;;;;;17.05;70.76;99672.34;4944383;28;125579;-64
2021/05/13 01:28:21;;;;;;;0.28;0.10;;;;;;;17.06;71.01;99669.31;4911497;28;97851;-71
2021/05/13 01:30:50;;;;;;;0.20;0.10;;;;;;;17.07;70.91;99664.66;4944403;28;98333;-71
2021/05/13 01:33:17;;;;;;;1.00;0.20;;;;;;;17.06;70.79;99660.34;4944703;28;97814;-71
2021/05/13 01:35:43;;;;;;;0.25;0.10;;;;;;;17.05;70.86;99658.72;4944250;28;110125;-71
2021/05/13 01:38:12;;;;;;;0.30;0.20;;;;;;;17.04;71.09;99660.66;4941657;28;97808;-71
2021/05/13 01:40:38;;;;;;;0.45;0.20;;;;;;;17.02;70.94;99654.75;4944767;28;98718;-63
2021/05/13 01:43:04;;;;;;;0.45;0.20;;;;;;;17.03;71.14;99650.91;4945195;28;98568;-66
2021/05/13 01:45:31;;;;;;;0.80;0.20;;;;;;;17.03;71.07;99644.66;4945105;28;110030;-66
2021/05/13 01:48:04;;;;;;;0.45;0.20;;;;;;;16.99;71.31;99647.25;4962955;28;103984;-71
2021/05/13 01:50:34;;;;;;;0.40;0.20;;;;;;;17.00;71.00;99642.59;4962369;28;118334;-67
2021/05/13 01:53:03;;;;;;;0.68;0.28;;;;;;;16.99;70.95;99647.25;4962136;28;98848;-64
2021/05/13 01:55:29;;;;;;;0.60;0.32;;;;;;;16.98;71.22;99636.66;4944827;28;118228;-71
2021/05/13 01:57:55;;;;;;;1.17;0.35;;;;;;;16.98;70.70;99636.66;4963228;28;97884;-71
2021/05/13 02:00:22;;;;;;;1.17;0.50;;;;;;;16.98;70.94;99642.09;4928474;28;113237;-71
2021/05/13 02:02:49;;;;;;;0.90;0.40;;;;;;;16.97;70.85;99638.59;4945084;28;97973;-64
2021/05/13 02:05:17;;;;;;;0.90;0.50;;;;;;;16.97;71.01;99643.25;4963775;28;98426;-64
2021/05/13 02:07:43;;;;;;;1.10;0.50;;;;;;;16.97;71.16;99635.06;4951823;28;108262;-71
2021/05/13 02:10:11;;;;;;;0.88;0.50;;;;;;;16.96;71.04;99634.28;4924525;28;100509;-64
2021/05/13 02:12:38;;;;;;;1.10;0.60;;;;;;;16.96;71.09;99625.31;4951614;28;98736;-64
2021/05/13 02:15:10;;;;;;;1.30;0.70;;;;;;;16.92;71.03;99634.13;4963318;28;97973;-65
2021/05/13 02:17:36;;;;;;;1.58;0.73;;;;;;;16.91;71.07;99623.59;4963237;28;108352;-64
2021/05/13 02:20:05;;;;;;;1.52;0.80;;;;;;;16.91;71.12;99615.44;4963345;28;117523;-64
2021/05/13 02:22:31;;;;;;;1.80;0.90;;;;;;;16.88;71.18;99627.75;4923851;28;117973;-64
2021/05/13 02:24:57;;;;;;;0.90;0.63;;;;;;;16.90;71.23;99614.63;4942375;28;127220;-71
2021/05/13 02:27:23;;;;;;;1.40;1.10;;;;;;;16.89;71.24;99612.22;4943691;28;116268;-64
2021/05/13 02:29:49;;;;;;;2.13;1.20;;;;;;;16.85;71.03;99603.91;4942633;28;128561;-71
2021/05/13 02:32:15;;;;;;;2.30;1.10;;;;;;;16.85;71.44;99608.56;4924134;28;128519;-64
2021/05/13 02:34:41;;;;;;;1.70;1.08;;;;;;;16.85;71.26;99600.41;4925942;28;98173;-64
2021/05/13 02:37:07;;;;;;;2.78;1.20;;;;;;;16.84;71.31;99604.25;4923565;28;117425;-71
2021/05/13 02:39:33;;;;;;;1.98;1.15;;;;;;;16.84;71.24;99601.53;4940452;28;127555;-71
2021/05/13 02:41:59;;;;;;;1.60;1.30;;;;;;;16.80;71.34;99598.69;4895455;28;98568;-71
2021/05/13 02:44:25;;;;;;;2.88;1.25;;;;;;;16.81;71.08;99605.69;4928186;28;100579;-71
2021/05/13 02:46:51;;;;;;;2.05;1.60;;;;;;;16.79;71.13;99599.81;4926176;28;119763;-64
2021/05/13 02:49:18;;;;;;;2.10;1.50;;;;;;;16.79;71.45;99599.00;4927629;28;98349;-64
2021/05/13 02:51:44;;;;;;;1.60;1.30;;;;;;;16.77;71.17;99601.25;4922928;28;98644;-71
2021/05/13 02:54:10;;;;;;;1.63;1.40;;;;;;;16.77;71.26;99612.94;4942172;28;128298;-64
2021/05/13 02:56:36;;;;;;;1.77;1.40;;;;;;;16.75;71.07;99606.25;4941787;28;116082;-64
2021/05/13 02:59:02;;;;;;;2.25;1.40;;;;;;;16.73;71.26;99609.28;4941797;28;128365;-64
2021/05/13 03:01:31;;;;;;;1.63;1.38;;;;;;;16.73;71.35;99613.91;4943512;28;97877;-64
2021/05/13 03:03:58;;;;;;;1.75;1.52;;;;;;;16.71;71.42;99613.44;4942566;28;98070;-73
2021/05/13 03:06:25;;;;;;;1.90;1.70;;;;;;;16.70;71.07;99607.19;4943850;28;98785;-71
2021/05/13 03:08:54;;;;;;;2.20;1.25;;;;;;;16.69;71.26;99606.38;4941574;28;97996;-64
2021/05/13 03:11:24;;;;;;;1.52;1.40;;;;;;;16.67;70.97;99586.09;4941880;28;98781;-71
2021/05/13 03:13:53;;;;;;;1.85;1.30;;;;;;;16.67;71.27;99586.09;4954518;28;98541;-64
2021/05/13 03:16:19;;;;;;;1.60;1.10;;;;;;;16.64;71.63;99584.81;4962364;28;97897;-71
2021/05/13 03:18:50;;;;;;;1.52;1.30;;;;;;;16.64;71.11;99578.56;4933955;28;98575;-63
2021/05/13 03:21:33;;;;;;;2.00;1.45;;;;;;;16.63;71.34;99571.56;4940294;28;98005;-64
2021/05/13 03:24:41;;;;;;;2.33;1.33;;;;;;;16.60;71.42;99559.38;4911249;28;98245;-63
2021/05/13 03:29:18;;;;;;;1.83;1.23;;;;;;;16.60;71.47;99574.91;4956899;28;114106;-70
2021/05/13 03:31:44;;;;;;;1.88;1.20;;;;;;;16.59;71.20;99565.97;4940969;28;127864;-71
2021/05/13 03:34:11;;;;;;;1.75;1.20;;;;;;;16.58;71.43;99566.28;4923801;28;97950;-71
2021/05/13 03:36:37;;;;;;;1.83;1.20;;;;;;;16.58;71.32;99569.78;4941344;28;118654;-70
2021/05/13 03:39:06;;;;;;;1.77;1.10;;;;;;;16.56;71.20;99563.09;4940883;28;127906;-70
2021/05/13 03:41:32;;;;;;;1.38;1.08;;;;;;;16.57;71.48;99567.41;4942497;28;98939;-63
2021/05/13 03:43:58;;;;;;;1.38;0.90;;;;;;;16.56;71.63;99558.44;4942715;28;127526;-71
2021/05/13 03:46:24;;;;;;;1.48;1.00;;;;;;;16.55;71.22;99559.59;4948243;28;106863;-70
2021/05/13 03:48:50;;;;;;;1.50;0.82;;;;;;;16.56;71.26;99569.34;4962240;28;115941;-63
2021/05/13 03:51:17;;;;;;;1.05;0.80;;;;;;;16.55;71.09;99569.69;4960383;28;109494;-63
2021/05/13 03:53:43;;;;;;;1.27;0.80;;;;;;;16.54;71.46;99577.00;4960856;28;99457;-70
2021/05/13 03:56:11;;;;;;;1.80;0.77;;;;;;;16.54;71.20;99578.94;4961799;28;98300;-72
2021/05/13 03:58:42;;;;;;;1.65;0.90;;;;;;;16.54;71.50;99578.94;4960304;28;98609;-70
2021/05/13 04:03:34;;;;;;;1.20;0.80;;;;;;;16.53;71.17;99582.78;4960156;28;115466;-64
2021/05/13 04:06:00;;;;;;;1.48;0.90;;;;;;;16.54;71.50;99578.94;4960407;28;97768;-64
2021/05/13 04:08:26;;;;;;;1.52;0.73;;;;;;;16.53;71.20;99582.78;4938482;28;127731;-71
2021/05/13 04:10:53;;;;;;;1.50;0.70;;;;;;;16.51;71.19;99590.50;4943044;28;98859;-64
2021/05/13 04:13:19;;;;;;;1.17;0.68;;;;;;;16.50;71.20;99589.69;4941225;28;98547;-64
2021/05/13 04:15:47;;;;;;;2.55;0.68;;;;;;;16.48;71.41;99581.06;4934909;28;97913;-64
2021/05/13 04:18:13;;;;;;;1.23;0.60;;;;;;;16.49;71.59;99590.00;4941420;28;98269;-72
2021/05/13 04:20:43;;;;;;;1.23;0.68;;;;;;;16.49;71.59;99590.81;4941296;28;99144;-73
2021/05/13 04:23:09;;;;;;;1.55;0.60;;;;;;;16.49;71.69;99584.56;4941968;28;98412;-72
2021/05/13 04:25:36;;;;;;;0.90;0.50;;;;;;;16.47;71.52;99590.34;4940851;28;117892;-64
2021/05/13 04:28:02;;;;;;;1.67;0.68;;;;;;;16.45;71.27;99584.44;4943194;28;99783;-64
2021/05/13 04:30:28;;;;;;;1.33;0.60;;;;;;;16.44;71.36;99586.34;4926338;28;115176;-72
2021/05/13 04:32:54;;;;;;;0.80;0.50;;;;;;;16.44;71.50;99586.34;4960952;28;111248;-73
2021/05/13 04:35:20;;;;;;;1.75;0.57;;;;;;;16.44;71.29;99588.28;4961369;28;97723;-65
2021/05/13 04:37:47;;;;;;;1.35;0.50;;;;;;;16.43;71.47;99592.13;4942009;28;101553;-64
2021/05/13 04:40:13;;;;;;;0.77;0.47;;;;;;;16.43;71.41;99584.78;4943076;28;128212;-64
2021/05/13 04:42:39;;;;;;;1.85;0.50;;;;;;;16.43;71.65;99587.50;4929914;28;98449;-65
2021/05/13 04:45:07;;;;;;;1.02;0.50;;;;;;;16.42;71.46;99585.88;4943036;28;115884;-71
2021/05/13 04:50:09;;;;;;;1.05;0.60;;;;;;;16.42;71.30;99585.88;4942038;28;98464;-72
2021/05/13 04:52:38;;;;;;;0.70;0.40;;;;;;;16.40;71.28;99585.41;4953202;28;116900;-72
2021/05/13 04:55:05;;;;;;;0.80;0.40;;;;;;;16.41;71.38;99587.00;4965717;28;111042;-64
2021/05/13 04:57:31;;;;;;;1.25;0.50;;;;;;;16.38;71.45;99584.94;4953872;28;113001;-72
2021/05/13 05:00:01;;;;;;;0.70;0.32;;;;;;;16.39;71.56;99583.81;4925772;28;118624;-72
2021/05/13 05:02:31;;;;;;;0.88;0.40;;;;;;;16.41;71.29;99583.50;4943508;28;98355;-65
2021/05/13 05:04:57;;;;;;;0.80;0.40;;;;;;;16.40;71.63;99576.47;4946610;28;97949;-72
2021/05/13 05:07:23;;;;;;;0.90;0.38;;;;;;;16.39;71.53;99580.31;4952169;28;103528;-65
2021/05/13 05:09:49;;;;;;;1.25;0.40;;;;;;;16.45;71.45;99584.44;4965689;28;98267;-65
2021/05/13 05:12:15;;;;;;;0.73;0.40;;;;;;;16.53;71.23;99577.34;4944617;28;127332;-65
2021/05/13 05:14:41;;;;;;;1.85;0.30;;;;;;;16.58;70.63;99567.06;4944048;28;104308;-73
2021/05/13 05:17:08;;;;;;;1.35;0.40;;;;;;;16.65;70.42;99563.84;4944523;28;98215;-65
2021/05/13 05:19:35;;;;;;;0.73;0.32;;;;;;;16.70;70.24;99569.09;4933444;28;128263;-71
2021/05/13 05:22:01;;;;;;;0.90;0.40;;;;;;;16.72;70.12;99569.56;4943781;28;102860;-71
2021/05/13 05:24:28;;;;;;;1.65;0.40;;;;;;;16.74;70.33;99575.53;4943192;28;97906;-71
2021/05/13 05:26:54;;;;;;;1.02;0.38;;;;;;;16.77;70.18;99574.84;4941624;28;128470;-65
2021/05/13 05:29:20;;;;;;;1.00;0.30;;;;;;;16.80;70.11;99574.19;4940674;28;122019;-71
2021/05/13 05:31:46;;;;;;;1.27;0.40;;;;;;;16.80;70.10;99574.19;4940140;28;126286;-71
2021/05/13 05:34:12;;;;;;;0.80;0.40;;;;;;;16.80;70.04;99578.84;4941522;28;111275;-64
2021/05/13 05:36:38;;;;;;;0.98;0.30;;;;;;;16.82;69.95;99576.56;4956226;28;119287;-71
2021/05/13 05:39:05;;;;;;;0.70;0.32;;;;;;;16.80;70.26;99571.47;4954698;28;127952;-71
2021/05/13 05:41:31;;;;;;;1.13;0.40;;;;;;;16.81;70.43;99566.81;4958916;28;113297;-71
2021/05/13 05:43:57;;;;;;;0.50;0.30;;;;;;;16.80;70.05;99566.03;4957478;28;103897;-71
2021/05/13 05:46:23;;;;;;;1.15;0.30;;;;;;;16.81;70.10;99567.59;4958543;28;113352;-64
2021/05/13 05:48:49;;;;;;;0.70;0.20;;;;;;;16.80;70.28;99566.03;4933534;28;114077;-71
2021/05/13 05:51:16;;;;;;;0.60;0.20;;;;;;;16.78;70.28;99565.56;4953885;28;98254;-64
2021/05/13 05:53:42;;;;;;;0.65;0.20;;;;;;;16.79;70.20;99564.44;4959739;28;98032;-64
2021/05/13 05:56:08;;;;;;;0.98;0.30;;;;;;;16.80;70.31;99567.94;4955726;28;127135;-72
2021/05/13 05:58:34;;;;;;;0.75;0.30;;;;;;;16.82;70.26;99568.41;4953944;28;98099;-64
2021/05/13 06:01:00;;;;;;;1.23;0.30;;;;;;;16.81;70.41;99564.09;4958817;28;124392;-73
2021/05/13 06:03:26;;;;;;;0.88;0.25;;;;;;;16.83;70.23;99567.28;4954770;28;118394;-72
2021/05/13 06:05:52;;;;;;;0.70;0.20;;;;;;;16.83;70.42;99564.56;4957351;28;99040;-72
2021/05/13 06:08:18;;;;;;;0.65;0.30;;;;;;;16.83;70.29;99562.66;4959517;28;128523;-64
2021/05/13 06:10:44;;;;;;;0.55;0.20;;;;;;;16.85;70.23;99562.31;4959271;28;127168;-72
2021/05/13 06:13:10;;;;;;;0.73;0.30;;;;;;;16.88;70.32;99559.72;4946600;28;104929;-64
2021/05/13 06:15:37;;;;;;;0.90;0.20;;;;;;;16.88;70.54;99550.75;4949412;28;99432;-72
2021/05/13 06:18:05;;;;;;;0.65;0.30;;;;;;;16.89;70.34;99557.78;4941897;28;98392;-64
2021/05/13 06:20:32;;;;;;;1.02;0.20;;;;;;;16.92;70.28;99551.69;4959107;28;99527;-72
2021/05/13 06:22:58;;;;;;;0.80;0.25;;;;;;;16.93;70.46;99558.72;4952238;28;97819;-64
2021/05/13 06:25:25;;;;;;;0.60;0.20;;;;;;;16.93;70.28;99556.00;4941667;28;98530;-64
2021/05/13 06:27:52;;;;;;;0.50;0.20;;;;;;;16.95;70.15;99559.19;4954064;28;98462;-64
2021/05/13 06:30:19;;;;;;;0.73;0.20;;;;;;;16.98;70.26;99561.28;4952937;28;127839;-64
2021/05/13 06:32:45;;;;;;;0.88;0.20;;;;;;;17.00;70.42;99567.16;4956218;28;105920;-64
2021/05/13 06:35:12;;;;;;;0.55;0.20;;;;;;;17.01;70.16;99562.50;4957066;28;98756;-64
2021/05/13 06:37:38;;;;;;;0.50;0.20;;;;;;;16.99;70.29;99560.13;4934714;28;105514;-72
2021/05/13 06:40:06;;;;;;;0.80;0.20;;;;;;;17.02;70.19;99572.28;4940944;28;127272;-64
2021/05/13 06:42:32;;;;;;;0.60;0.20;;;;;;;17.01;70.45;99563.31;4938715;28;98194;-72
2021/05/13 06:44:58;;;;;;;0.70;0.20;;;;;;;17.01;70.53;99568.75;4959730;28;112408;-64
2021/05/13 06:47:24;;;;;;;0.93;0.20;;;;;;;17.00;70.58;99569.09;4956043;28;97955;-72
2021/05/13 06:49:50;;;;;;;0.65;0.30;;;;;;;16.99;70.40;99571.03;4958996;28;127115;-72
2021/05/13 06:52:17;;;;;;;0.80;0.20;;;;;;;16.99;70.56;99570.22;4958160;28;116871;-72
2021/05/13 06:54:44;;;;;;;0.60;0.20;;;;;;;16.99;70.76;99571.03;4959697;28;98414;-64
2021/05/13 06:57:10;;;;;;;0.73;0.20;;;;;;;16.99;70.63;99573.75;4952785;28;116043;-72
2021/05/13 06:59:38;;;;;;;0.77;0.20;;;;;;;17.01;70.53;99574.19;4951319;28;123342;-64
2021/05/13 07:02:05;;;;;;;1.15;0.20;;;;;;;17.04;70.58;99572.75;4954479;28;97966;-72
2021/05/13 07:04:31;;;;;;;0.98;0.20;;;;;;;17.05;70.42;99569.69;4959759;28;127144;-64
2021/05/13 07:06:57;;;;;;;0.50;0.20;;;;;;;17.10;70.27;99569.50;4939194;28;100033;-71
2021/05/13 07:09:24;;;;;;;0.40;0.20;;;;;;;17.14;70.34;99566.91;4939182;28;125367;-64
2021/05/13 07:11:50;;;;;;;0.65;0.20;;;;;;;17.17;70.41;99567.03;4959044;28;106204;-64
2021/05/13 07:14:16;;;;;;;0.90;0.20;;;;;;;17.23;70.17;99569.56;4923866;28;116761;-64
2021/05/13 07:16:42;;;;;;;0.40;0.20;;;;;;;17.30;69.79;99565.16;4934794;28;127044;-64
2021/05/13 07:19:08;;;;;;;0.40;0.20;;;;;;;17.30;70.21;99569.81;4920184;28;98758;-71
2021/05/13 07:21:34;;;;;;;0.50;0.20;;;;;;;17.28;70.08;99563.91;4917978;28;118213;-71
2021/05/13 07:24:02;;;;;;;0.38;0.10;;;;;;;17.30;70.21;99572.56;4936319;28;128829;-64
2021/05/13 07:26:28;;;;;;;0.45;0.17;;;;;;;17.27;70.14;99574.00;4956730;28;104287;-71
2021/05/13 07:28:54;;;;;;;0.38;0.15;;;;;;;17.26;70.46;99571.63;4952771;28;121702;-64
2021/05/13 07:31:21;;;;;;;0.40;0.20;;;;;;;17.25;70.51;99567.28;4957526;28;108815;-64
2021/05/13 07:33:48;;;;;;;0.98;0.20;;;;;;;17.23;70.67;99566.84;4958266;28;97919;-64
2021/05/13 07:36:14;;;;;;;0.45;0.20;;;;;;;17.19;70.70;99566.69;4953751;28;99261;-70
2021/05/13 07:38:40;;;;;;;0.60;0.10;;;;;;;17.18;70.67;99570.56;4955580;28;120636;-63
2021/05/13 07:41:06;;;;;;;0.47;0.20;;;;;;;17.17;70.57;99568.94;4958778;28;97635;-64
2021/05/13 07:43:34;;;;;;;1.33;0.20;;;;;;;17.16;70.65;99568.16;4958828;28;98283;-71
2021/05/13 07:46:01;;;;;;;0.50;0.20;;;;;;;17.15;70.99;99561.13;4954621;28;98885;-64
2021/05/13 07:48:31;;;;;;;0.70;0.20;;;;;;;17.13;70.75;99568.84;4958468;28;98041;-64
2021/05/13 07:50:57;;;;;;;0.38;0.10;;;;;;;17.12;70.78;99563.72;4958275;28;98002;-71
2021/05/13 07:53:24;;;;;;;0.20;0.10;;;;;;;17.13;71.06;99562.56;4922982;28;112215;-64
2021/05/13 07:55:50;;;;;;;0.47;0.15;;;;;;;17.16;70.85;99559.97;4941362;28;117927;-64
2021/05/13 07:58:16;;;;;;;0.40;0.10;;;;;;;17.17;70.67;99552.59;4949865;28;127528;-71
2021/05/13 08:00:42;;;;;;;0.60;0.10;;;;;;;17.18;70.85;99557.75;4958592;28;98495;-71
2021/05/13 08:03:08;;;;;;;0.30;0.10;;;;;;;17.21;70.64;99550.81;4961248;28;113655;-64
2021/05/13 08:05:34;;;;;;;0.75;0.10;;;;;;;17.23;70.54;99547.78;4919403;28;114328;-70
2021/05/13 08:08:00;;;;;;;0.30;0.10;;;;;;;17.23;70.57;99554.00;4939207;28;105132;-71
2021/05/13 08:10:27;;;;;;;0.45;0.10;;;;;;;17.24;70.67;99546.63;4956079;28;97980;-64
2021/05/13 08:12:53;;;;;;;0.35;0.17;;;;;;;17.25;70.49;99543.59;4962229;28;98802;-70
2021/05/13 08:15:19;;;;;;;0.40;0.20;;;;;;;17.26;70.49;99542.47;4954314;28;98520;-70
2021/05/13 08:17:45;;;;;;;0.40;0.20;;;;;;;17.30;70.76;99537.94;4955168;28;128068;-64
2021/05/13 08:20:13;;;;;;;0.40;0.10;;;;;;;17.29;70.59;99538.25;4951344;28;99130;-63
2021/05/13 08:22:41;;;;;;;0.80;0.20;;;;;;;17.29;70.57;99541.81;4949922;28;98148;-71
2021/05/13 08:25:08;;;;;;;0.30;0.10;;;;;;;17.34;70.60;99540.78;4953849;28;98603;-63
2021/05/13 08:27:35;;;;;;;0.82;0.10;;;;;;;17.33;70.53;99541.91;4950909;28;98455;-71
2021/05/13 08:30:02;;;;;;;0.40;0.20;;;;;;;17.33;70.35;99534.56;4951848;28;99111;-71
2021/05/13 08:32:28;;;;;;;0.32;0.15;;;;;;;17.32;70.66;99540.31;4958880;28;110302;-64
2021/05/13 08:34:55;;;;;;;0.80;0.20;;;;;;;17.34;70.49;99529.91;4962013;28;98318;-70
2021/05/13 08:37:21;;;;;;;0.73;0.10;;;;;;;17.41;70.30;99533.66;4958045;28;97970;-63
2021/05/13 08:39:47;;;;;;;0.80;0.28;;;;;;;17.45;70.20;99525.63;4952191;28;98016;-70
2021/05/13 08:42:14;;;;;;;0.82;0.20;;;;;;;17.43;70.42;99525.94;4954938;28;99230;-68
2021/05/13 08:44:44;;;;;;;0.90;0.20;;;;;;;17.46;70.50;99527.22;4957769;28;116769;-70
2021/05/13 08:47:10;;;;;;;0.85;0.20;;;;;;;17.50;70.24;99524.63;4956900;28;97919;-70
2021/05/13 08:49:37;;;;;;;1.10;0.28;;;;;;;17.52;69.97;99520.41;4959156;28;97980;-64
2021/05/13 08:52:25;;;;;;;1.10;0.30;;;;;;;17.52;70.15;99522.34;4955515;28;119020;-70
2021/05/13 08:54:59;;;;;;;1.00;0.35;;;;;;;17.52;70.29;99525.84;4957605;28;98312;-70
2021/05/13 08:57:25;;;;;;;1.58;0.20;;;;;;;17.49;70.57;99532.00;4922195;28;98587;-70
2021/05/13 08:59:52;;;;;;;1.00;0.20;;;;;;;17.49;70.33;99531.16;4948286;28;118392;-70
2021/05/13 09:02:18;;;;;;;0.77;0.20;;;;;;;17.44;70.60;99532.19;4956194;28;99441;-70
2021/05/13 09:04:47;;;;;;;0.88;0.20;;;;;;;17.41;70.71;99538.31;4948038;28;99230;-64
2021/05/13 09:07:25;;;;;;;0.95;0.20;;;;;;;17.36;70.74;99536.59;4951794;28;98445;-64
2021/05/13 09:10:03;;;;;;;1.70;0.20;;;;;;;17.36;70.94;99536.59;4935212;28;98055;-71
2021/05/13 09:12:50;;;;;;;1.23;0.13;;;;;;;17.33;70.91;99533.72;4938504;28;99038;-64
2021/05/13 09:15:24;;;;;;;1.33;0.28;;;;;;;17.30;70.99;99526.25;4919370;28;99782;-70
2021/05/13 09:18:02;;;;;;;0.65;0.20;;;;;;;17.29;71.12;99525.47;4957312;28;97857;-64
2021/05/13 09:20:36;;;;;;;0.80;0.20;;;;;;;17.21;71.36;99530.97;4938311;28;97909;-64
2021/05/13 09:23:28;;;;;;;0.52;0.20;;;;;;;17.18;71.52;99532.44;4922579;28;98946;-70
2021/05/13 09:26:36;;;;;;;;;;;;;;;17.12;71.46;99533.75;4953862;28;99529;-64
2021/05/13 09:29:10;;;;;;;0.90;0.20;;;;;;;17.06;71.96;99533.19;4948536;28;98217;-64
2021/05/13 09:31:42;;;;;;;0.60;0.20;;;;;;;17.05;71.95;99536.22;4949268;28;99392;-64
2021/05/13 09:34:09;;;;;;;0.90;0.20;;;;;;;17.04;72.41;99531.91;4938620;28;98625;-64
2021/05/13 09:36:35;;;;;;;0.63;0.20;;;;;;;17.03;72.14;99544.72;4923981;28;98392;-70
2021/05/13 09:39:23;;;;;;;1.15;0.20;;;;;;;16.97;71.94;99542.53;4960430;28;98399;-64
2021/05/13 09:42:06;;;;;;;0.60;0.20;;;;;;;16.97;72.17;99542.53;4965088;28;97811;-70
2021/05/13 09:44:34;;;;;;;0.68;0.20;;;;;;;16.97;72.00;99546.03;4950550;28;98626;-70
2021/05/13 09:47:19;;;;;;;0.57;0.20;;;;;;;16.96;71.98;99543.66;4935977;28;98635;-70
2021/05/13 09:50:02;;;;;;;0.80;0.20;;;;;;;16.95;72.01;99550.25;4948684;28;98594;-72
2021/05/13 09:52:51;;;;;;;0.80;0.30;;;;;;;16.95;71.99;99548.31;4956116;28;98315;-64
2021/05/13 09:55:31;;;;;;;0.50;0.20;;;;;;;16.95;72.01;99548.31;4940683;28;98297;-63
2021/05/13 09:58:07;;;;;;;1.63;0.20;;;;;;;16.96;71.83;99551.81;4955461;28;98147;-69
2021/05/13 10:00:59;;;;;;;0.50;0.20;;;;;;;16.92;71.87;99549.75;4955477;28;98985;-69
2021/05/13 10:03:25;;;;;;;0.75;0.20;;;;;;;16.95;72.03;99558.41;4956588;28;112951;-70
2021/05/13 10:05:53;;;;;;;0.47;0.20;;;;;;;16.92;72.05;99551.69;4952569;28;128015;-64
2021/05/13 10:08:19;;;;;;;1.08;0.20;;;;;;;16.91;72.08;99547.38;4931214;28;98518;-64
2021/05/13 10:10:46;;;;;;;0.50;0.20;;;;;;;16.90;72.13;99557.47;4952930;28;114033;-69
2021/05/13 10:13:13;;;;;;;0.40;0.13;;;;;;;16.87;72.14;99558.13;4951221;28;98718;-69
2021/05/13 10:15:40;;;;;;;0.70;0.20;;;;;;;16.87;72.07;99568.22;4952461;28;98459;-69
2021/05/13 10:18:21;;;;;;;0.55;0.20;;;;;;;16.86;71.83;99566.63;4956941;28;99672;-69
2021/05/13 10:20:58;;;;;;;0.85;0.20;;;;;;;16.85;72.05;99559.56;4928349;28;98844;-69
2021/05/13 10:23:25;;;;;;;0.40;0.20;;;;;;;16.87;71.78;99565.50;4924208;28;97961;-70
2021/05/13 10:25:51;;;;;;;0.70;0.20;;;;;;;16.88;71.84;99565.16;4924904;28;98297;-64
2021/05/13 10:28:18;;;;;;;0.50;0.20;;;;;;;16.90;71.74;99570.28;4957166;28;99647;-69
2021/05/13 10:30:44;;;;;;;0.40;0.20;;;;;;;16.88;72.07;99564.38;4923476;28;127801;-69
2021/05/13 10:33:20;;;;;;;0.60;0.20;;;;;;;16.87;71.95;99560.84;4939881;28;104772;-64
2021/05/13 10:36:03;;;;;;;1.15;0.20;;;;;;;16.84;71.83;99566.94;4957678;28;99064;-69
2021/05/13 10:38:45;;;;;;;0.60;0.20;;;;;;;16.86;71.83;99563.91;4959478;28;98114;-64
2021/05/13 10:41:33;;;;;;;0.70;0.20;;;;;;;16.84;71.91;99564.22;4939211;28;99519;-70
2021/05/13 10:44:11;;;;;;;0.50;0.20;;;;;;;16.85;71.78;99551.41;4957183;28;97975;-70
2021/05/13 10:46:38;;;;;;;1.30;0.22;;;;;;;16.90;71.82;99552.03;4958686;28;99124;-69
2021/05/13 10:49:19;;;;;;;0.82;0.30;;;;;;;16.90;71.55;99548.53;4955145;28;98389;-66
2021/05/13 10:51:47;;;;;;;0.55;0.30;;;;;;;16.95;71.82;99544.81;4923222;28;120639;-70
2021/05/13 10:54:31;;;;;;;1.33;0.20;;;;;;;16.98;71.60;99547.66;4956229;28;103774;-64
2021/05/13 10:57:24;;;;;;;0.60;0.20;;;;;;;17.02;71.13;99543.16;4958486;28;98607;-69
2021/05/13 11:00:06;;;;;;;0.40;0.20;;;;;;;17.01;71.03;99541.53;4936617;28;99041;-63
2021/05/13 11:02:45;;;;;;;;;;;;;;;17.01;71.01;99544.25;4958792;28;98428;-63
2021/05/13 11:05:30;;;;;;;0.80;0.30;;;;;;;16.98;71.60;99539.50;4951465;28;105607;-63
2021/05/13 11:08:03;;;;;;;0.88;0.20;;;;;;;16.97;71.77;99535.16;4956647;28;98469;-64
2021/05/13 11:10:59;;;;;;;0.40;0.17;;;;;;;16.99;71.39;99523.94;4935320;28;115302;-64
2021/05/13 11:13:43;;;;;;;0.65;0.20;;;;;;;17.03;71.32;99531.13;4957081;28;97919;-64
2021/05/13 11:16:47;;;;;;;0.50;0.20;;;;;;;17.05;71.20;99522.59;4951079;28;98424;-63
2021/05/13 11:19:24;;;;;;;0.50;0.20;;;;;;;17.13;70.87;99521.72;4958925;28;98251;-70
2021/05/13 11:21:57;;;;;;;0.40;0.20;;;;;;;17.16;71.02;99518.34;4954889;28;98061;-70
2021/05/13 11:24:29;;;;;;;0.60;0.20;;;;;;;17.16;71.17;99521.88;4957243;28;98082;-70
2021/05/13 11:26:56;;;;;;;0.80;0.20;;;;;;;17.18;71.13;99518.81;4936352;28;100824;-70
2021/05/13 11:29:22;;;;;;;0.93;0.20;;;;;;;17.25;70.89;99515.53;4953857;28;98090;-64
2021/05/13 11:31:51;;;;;;;0.50;0.20;;;;;;;17.27;70.69;99511.38;4957734;28;128950;-63
2021/05/13 11:34:20;;;;;;;2.50;0.40;;;;;;;17.32;70.50;99504.91;4955094;28;98661;-63
2021/05/13 11:36:47;;;;;;;0.50;0.20;;;;;;;17.37;70.51;99504.69;4918860;28;116574;-64
2021/05/13 11:39:17;;;;;;;0.50;0.20;;;;;;;17.35;70.34;99499.59;4939041;28;99376;-70
2021/05/13 11:41:49;;;;;;;0.68;0.28;;;;;;;17.38;70.49;99498.94;4950920;28;98784;-69
2021/05/13 11:44:20;;;;;;;0.88;0.30;;;;;;;17.38;70.19;99504.38;4955555;28;97758;-63
2021/05/13 11:46:50;;;;;;;0.60;0.30;;;;;;;17.40;70.45;99504.81;4953702;28;97985;-63